sensor_id;sensor_type;location;lat;lon;timestamp;temperature;humidity
72202;SHT30;60105;54.956;73.412;2022-09-09T00:06:45;9.32;75.31
72202;SHT30;60105;54.956;73.412;2022-09-09T00:09:25;9.31;75.41
72202;SHT30;60105;54.956;73.412;2022-09-09T00:12:02;9.30;75.83
72202;SHT30;60105;54.956;73.412;2022-09-09T00:17:47;9.36;75.13
72202;SHT30;60105;54.956;73.412;2022-09-09T00:26:11;9.31;74.86
72202;SHT30;60105;54.956;73.412;2022-09-09T00:28:52;9.30;75.37
72202;SHT30;60105;54.956;73.412;2022-09-09T00:31:26;9.23;75.08
72202;SHT30;60105;54.956;73.412;2022-09-09T00:34:18;9.18;75.03
72202;SHT30;60105;54.956;73.412;2022-09-09T00:36:48;9.18;74.64
72202;SHT30;60105;54.956;73.412;2022-09-09T00:39:34;9.13;74.91
72202;SHT30;60105;54.956;73.412;2022-09-09T00:42:24;9.04;75.65
72202;SHT30;60105;54.956;73.412;2022-09-09T00:45:37;8.93;75.86
72202;SHT30;60105;54.956;73.412;2022-09-09T00:48:11;8.81;76.39
72202;SHT30;60105;54.956;73.412;2022-09-09T00:50:57;8.77;76.71
72202;SHT30;60105;54.956;73.412;2022-09-09T00:53:58;8.66;77.21
72202;SHT30;60105;54.956;73.412;2022-09-09T00:59:45;8.62;77.23
72202;SHT30;60105;54.956;73.412;2022-09-09T01:02:26;8.50;77.71
72202;SHT30;60105;54.956;73.412;2022-09-09T01:04:54;8.50;77.61
72202;SHT30;60105;54.956;73.412;2022-09-09T01:07:26;8.45;78.03
72202;SHT30;60105;54.956;73.412;2022-09-09T01:10:25;8.44;77.99
72202;SHT30;60105;54.956;73.412;2022-09-09T01:12:55;8.42;77.80
72202;SHT30;60105;54.956;73.412;2022-09-09T01:15:27;8.35;77.96
72202;SHT30;60105;54.956;73.412;2022-09-09T01:18:08;8.38;77.80
72202;SHT30;60105;54.956;73.412;2022-09-09T01:23:56;8.45;77.69
72202;SHT30;60105;54.956;73.412;2022-09-09T01:26:45;8.48;77.72
72202;SHT30;60105;54.956;73.412;2022-09-09T01:29:26;8.49;77.72
72202;SHT30;60105;54.956;73.412;2022-09-09T01:31:55;8.50;77.80
72202;SHT30;60105;54.956;73.412;2022-09-09T01:34:24;8.57;77.40
72202;SHT30;60105;54.956;73.412;2022-09-09T01:36:58;8.66;77.23
72202;SHT30;60105;54.956;73.412;2022-09-09T01:39:33;8.76;76.89
72202;SHT30;60105;54.956;73.412;2022-09-09T01:42:15;8.87;76.27
72202;SHT30;60105;54.956;73.412;2022-09-09T01:44:42;8.91;76.51
72202;SHT30;60105;54.956;73.412;2022-09-09T01:47:09;8.99;75.83
72202;SHT30;60105;54.956;73.412;2022-09-09T01:49:50;9.03;75.21
72202;SHT30;60105;54.956;73.412;2022-09-09T01:52:27;9.03;75.51
72202;SHT30;60105;54.956;73.412;2022-09-09T01:54:54;9.10;75.37
72202;SHT30;60105;54.956;73.412;2022-09-09T02:00:23;9.20;74.75
72202;SHT30;60105;54.956;73.412;2022-09-09T02:03:20;9.24;74.70
72202;SHT30;60105;54.956;73.412;2022-09-09T02:06:10;9.32;73.41
72202;SHT30;60105;54.956;73.412;2022-09-09T02:08:47;9.39;73.73
72202;SHT30;60105;54.956;73.412;2022-09-09T02:11:20;9.46;73.01
72202;SHT30;60105;54.956;73.412;2022-09-09T02:14:02;9.55;72.63
72202;SHT30;60105;54.956;73.412;2022-09-09T02:16:42;9.59;72.00
72202;SHT30;60105;54.956;73.412;2022-09-09T02:19:21;9.68;71.83
72202;SHT30;60105;54.956;73.412;2022-09-09T02:22:26;9.75;71.71
72202;SHT30;60105;54.956;73.412;2022-09-09T02:24:56;9.82;71.02
72202;SHT30;60105;54.956;73.412;2022-09-09T02:27:27;9.86;71.19
72202;SHT30;60105;54.956;73.412;2022-09-09T02:29:54;9.89;71.46
72202;SHT30;60105;54.956;73.412;2022-09-09T02:32:40;9.96;71.43
72202;SHT30;60105;54.956;73.412;2022-09-09T02:35:19;9.93;71.40
72202;SHT30;60105;54.956;73.412;2022-09-09T02:37:46;9.92;71.19
72202;SHT30;60105;54.956;73.412;2022-09-09T02:40:14;9.99;71.08
72202;SHT30;60105;54.956;73.412;2022-09-09T02:42:49;10.12;70.71
72202;SHT30;60105;54.956;73.412;2022-09-09T02:45:34;10.12;70.73
72202;SHT30;60105;54.956;73.412;2022-09-09T02:48:31;10.21;69.85
72202;SHT30;60105;54.956;73.412;2022-09-09T02:56:49;10.48;69.14
72202;SHT30;60105;54.956;73.412;2022-09-09T02:59:18;10.57;68.85
72202;SHT30;60105;54.956;73.412;2022-09-09T03:01:55;10.64;68.58
72202;SHT30;60105;54.956;73.412;2022-09-09T03:04:22;10.75;67.39
72202;SHT30;60105;54.956;73.412;2022-09-09T03:06:53;10.82;67.11
72202;SHT30;60105;54.956;73.412;2022-09-09T03:09:21;10.91;67.41
72202;SHT30;60105;54.956;73.412;2022-09-09T03:11:49;10.99;66.62
72202;SHT30;60105;54.956;73.412;2022-09-09T03:14:16;11.08;66.36
72202;SHT30;60105;54.956;73.412;2022-09-09T03:16:42;11.12;66.41
72202;SHT30;60105;54.956;73.412;2022-09-09T03:19:10;11.23;65.93
72202;SHT30;60105;54.956;73.412;2022-09-09T03:21:36;11.30;65.71
72202;SHT30;60105;54.956;73.412;2022-09-09T03:24:02;11.40;65.33
72202;SHT30;60105;54.956;73.412;2022-09-09T03:26:30;11.47;66.18
72202;SHT30;60105;54.956;73.412;2022-09-09T03:28:58;11.60;64.85
72202;SHT30;60105;54.956;73.412;2022-09-09T03:31:27;11.66;64.39
72202;SHT30;60105;54.956;73.412;2022-09-09T03:33:57;11.77;63.48
72202;SHT30;60105;54.956;73.412;2022-09-09T03:36:26;11.88;63.56
72202;SHT30;60105;54.956;73.412;2022-09-09T03:38:52;11.97;63.42
72202;SHT30;60105;54.956;73.412;2022-09-09T03:41:22;12.04;62.90
72202;SHT30;60105;54.956;73.412;2022-09-09T03:43:51;12.11;61.65
72202;SHT30;60105;54.956;73.412;2022-09-09T03:46:19;12.18;61.41
72202;SHT30;60105;54.956;73.412;2022-09-09T03:48:51;12.25;61.51
72202;SHT30;60105;54.956;73.412;2022-09-09T03:51:20;12.33;62.02
72202;SHT30;60105;54.956;73.412;2022-09-09T03:53:57;12.39;61.78
72202;SHT30;60105;54.956;73.412;2022-09-09T03:56:26;12.48;62.20
72202;SHT30;60105;54.956;73.412;2022-09-09T03:58:53;12.56;62.20
72202;SHT30;60105;54.956;73.412;2022-09-09T04:01:23;12.64;60.91
72202;SHT30;60105;54.956;73.412;2022-09-09T04:03:49;12.70;61.28
72202;SHT30;60105;54.956;73.412;2022-09-09T04:06:16;12.79;60.50
72202;SHT30;60105;54.956;73.412;2022-09-09T04:08:52;12.87;60.43
72202;SHT30;60105;54.956;73.412;2022-09-09T04:11:19;12.96;59.87
72202;SHT30;60105;54.956;73.412;2022-09-09T04:13:49;13.03;60.12
72202;SHT30;60105;54.956;73.412;2022-09-09T04:16:22;13.12;60.31
72202;SHT30;60105;54.956;73.412;2022-09-09T04:18:53;13.18;59.13
72202;SHT30;60105;54.956;73.412;2022-09-09T04:21:27;13.22;58.83
72202;SHT30;60105;54.956;73.412;2022-09-09T04:23:53;13.32;58.04
72202;SHT30;60105;54.956;73.412;2022-09-09T04:26:21;13.39;58.18
72202;SHT30;60105;54.956;73.412;2022-09-09T04:28:48;13.49;57.55
72202;SHT30;60105;54.956;73.412;2022-09-09T04:31:28;13.58;56.26
72202;SHT30;60105;54.956;73.412;2022-09-09T04:33:56;13.70;56.54
72202;SHT30;60105;54.956;73.412;2022-09-09T04:36:22;13.83;56.24
72202;SHT30;60105;54.956;73.412;2022-09-09T04:39:03;13.86;55.01
72202;SHT30;60105;54.956;73.412;2022-09-09T04:41:29;14.00;54.92
72202;SHT30;60105;54.956;73.412;2022-09-09T04:43:57;14.09;53.99
72202;SHT30;60105;54.956;73.412;2022-09-09T04:46:24;14.24;53.72
72202;SHT30;60105;54.956;73.412;2022-09-09T04:48:51;14.34;52.10
72202;SHT30;60105;54.956;73.412;2022-09-09T04:51:19;14.24;52.40
72202;SHT30;60105;54.956;73.412;2022-09-09T04:53:52;14.20;52.21
72202;SHT30;60105;54.956;73.412;2022-09-09T04:56:24;14.18;51.15
72202;SHT30;60105;54.956;73.412;2022-09-09T04:58:56;14.37;51.17
72202;SHT30;60105;54.956;73.412;2022-09-09T05:01:30;14.54;50.92
72202;SHT30;60105;54.956;73.412;2022-09-09T05:04:02;14.78;50.30
72202;SHT30;60105;54.956;73.412;2022-09-09T05:06:28;15.06;50.54
72202;SHT30;60105;54.956;73.412;2022-09-09T05:09:00;15.13;48.32
72202;SHT30;60105;54.956;73.412;2022-09-09T05:11:30;15.12;49.14
72202;SHT30;60105;54.956;73.412;2022-09-09T05:14:06;15.16;48.64
72202;SHT30;60105;54.956;73.412;2022-09-09T05:16:32;15.19;48.88
72202;SHT30;60105;54.956;73.412;2022-09-09T05:18:59;15.20;49.31
72202;SHT30;60105;54.956;73.412;2022-09-09T05:21:31;15.16;49.01
72202;SHT30;60105;54.956;73.412;2022-09-09T05:23:58;15.13;49.29
72202;SHT30;60105;54.956;73.412;2022-09-09T05:26:34;15.10;49.14
72202;SHT30;60105;54.956;73.412;2022-09-09T05:29:01;15.06;49.40
72202;SHT30;60105;54.956;73.412;2022-09-09T05:31:30;15.03;49.50
72202;SHT30;60105;54.956;73.412;2022-09-09T05:33:59;15.04;48.93
72202;SHT30;60105;54.956;73.412;2022-09-09T05:36:26;15.09;48.97
72202;SHT30;60105;54.956;73.412;2022-09-09T05:38:55;15.10;49.06
72202;SHT30;60105;54.956;73.412;2022-09-09T05:41:23;15.18;50.28
72202;SHT30;60105;54.956;73.412;2022-09-09T05:43:56;15.36;49.43
72202;SHT30;60105;54.956;73.412;2022-09-09T05:46:33;15.57;50.31
72202;SHT30;60105;54.956;73.412;2022-09-09T05:48:59;15.67;47.32
72202;SHT30;60105;54.956;73.412;2022-09-09T05:51:31;15.80;48.18
72202;SHT30;60105;54.956;73.412;2022-09-09T05:54:01;15.94;47.12
72202;SHT30;60105;54.956;73.412;2022-09-09T05:56:31;15.97;46.37
72202;SHT30;60105;54.956;73.412;2022-09-09T05:59:08;15.97;46.64
72202;SHT30;60105;54.956;73.412;2022-09-09T06:01:36;16.02;46.59
72202;SHT30;60105;54.956;73.412;2022-09-09T06:04:08;16.02;44.79
72202;SHT30;60105;54.956;73.412;2022-09-09T06:06:36;16.02;45.56
72202;SHT30;60105;54.956;73.412;2022-09-09T06:09:10;16.01;46.02
72202;SHT30;60105;54.956;73.412;2022-09-09T06:11:40;16.00;46.07
72202;SHT30;60105;54.956;73.412;2022-09-09T06:14:08;16.02;46.25
72202;SHT30;60105;54.956;73.412;2022-09-09T06:16:41;16.04;47.01
72202;SHT30;60105;54.956;73.412;2022-09-09T06:19:22;15.94;47.09
72202;SHT30;60105;54.956;73.412;2022-09-09T06:21:50;15.90;49.29
72202;SHT30;60105;54.956;73.412;2022-09-09T06:24:26;15.98;48.37
72202;SHT30;60105;54.956;73.412;2022-09-09T06:26:56;16.00;47.39
72202;SHT30;60105;54.956;73.412;2022-09-09T06:29:27;16.02;47.05
72202;SHT30;60105;54.956;73.412;2022-09-09T06:31:54;16.11;47.27
72202;SHT30;60105;54.956;73.412;2022-09-09T06:34:22;16.15;48.62
72202;SHT30;60105;54.956;73.412;2022-09-09T06:37:04;16.26;45.15
72202;SHT30;60105;54.956;73.412;2022-09-09T06:39:42;16.32;45.66
72202;SHT30;60105;54.956;73.412;2022-09-09T06:42:08;16.33;45.86
72202;SHT30;60105;54.956;73.412;2022-09-09T06:44:58;16.53;43.89
72202;SHT30;60105;54.956;73.412;2022-09-09T06:47:33;16.66;45.06
72202;SHT30;60105;54.956;73.412;2022-09-09T06:50:00;16.66;45.27
72202;SHT30;60105;54.956;73.412;2022-09-09T06:52:26;16.71;43.78
72202;SHT30;60105;54.956;73.412;2022-09-09T06:54:54;16.73;45.14
72202;SHT30;60105;54.956;73.412;2022-09-09T06:57:21;16.77;41.69
72202;SHT30;60105;54.956;73.412;2022-09-09T06:59:47;16.83;43.91
72202;SHT30;60105;54.956;73.412;2022-09-09T07:02:14;16.87;40.64
72202;SHT30;60105;54.956;73.412;2022-09-09T07:04:40;16.87;42.35
72202;SHT30;60105;54.956;73.412;2022-09-09T07:07:07;16.94;41.62
72202;SHT30;60105;54.956;73.412;2022-09-09T07:09:36;16.95;42.40
72202;SHT30;60105;54.956;73.412;2022-09-09T07:12:08;16.94;42.28
72202;SHT30;60105;54.956;73.412;2022-09-09T07:14:37;16.94;40.67
72202;SHT30;60105;54.956;73.412;2022-09-09T07:17:06;17.01;40.86
72202;SHT30;60105;54.956;73.412;2022-09-09T07:19:42;17.06;38.99
72202;SHT30;60105;54.956;73.412;2022-09-09T07:22:09;17.15;40.12
72202;SHT30;60105;54.956;73.412;2022-09-09T07:24:37;17.29;41.00
72202;SHT30;60105;54.956;73.412;2022-09-09T07:27:08;17.39;39.49
72202;SHT30;60105;54.956;73.412;2022-09-09T07:29:36;17.46;39.89
72202;SHT30;60105;54.956;73.412;2022-09-09T07:32:04;17.55;39.17
72202;SHT30;60105;54.956;73.412;2022-09-09T07:34:34;17.68;38.07
72202;SHT30;60105;54.956;73.412;2022-09-09T07:37:02;17.79;37.84
72202;SHT30;60105;54.956;73.412;2022-09-09T07:39:34;17.85;37.11
72202;SHT30;60105;54.956;73.412;2022-09-09T07:42:01;17.86;38.81
72202;SHT30;60105;54.956;73.412;2022-09-09T07:44:27;17.89;39.00
72202;SHT30;60105;54.956;73.412;2022-09-09T07:47:07;18.11;38.68
72202;SHT30;60105;54.956;73.412;2022-09-09T07:49:49;18.26;36.30
72202;SHT30;60105;54.956;73.412;2022-09-09T07:52:19;18.31;37.15
72202;SHT30;60105;54.956;73.412;2022-09-09T07:54:48;18.37;36.27
72202;SHT30;60105;54.956;73.412;2022-09-09T07:57:14;18.35;35.37
72202;SHT30;60105;54.956;73.412;2022-09-09T07:59:47;18.24;35.20
72202;SHT30;60105;54.956;73.412;2022-09-09T08:02:14;18.16;36.02
72202;SHT30;60105;54.956;73.412;2022-09-09T08:04:45;18.34;35.62
72202;SHT30;60105;54.956;73.412;2022-09-09T08:07:12;18.56;36.74
72202;SHT30;60105;54.956;73.412;2022-09-09T08:09:46;18.73;35.73
72202;SHT30;60105;54.956;73.412;2022-09-09T08:12:19;18.71;34.19
72202;SHT30;60105;54.956;73.412;2022-09-09T08:14:45;18.71;35.31
72202;SHT30;60105;54.956;73.412;2022-09-09T08:17:22;18.72;34.83
72202;SHT30;60105;54.956;73.412;2022-09-09T08:19:48;18.72;34.11
72202;SHT30;60105;54.956;73.412;2022-09-09T08:22:19;18.72;34.49
72202;SHT30;60105;54.956;73.412;2022-09-09T08:24:50;18.81;33.95
72202;SHT30;60105;54.956;73.412;2022-09-09T08:27:23;18.88;33.96
72202;SHT30;60105;54.956;73.412;2022-09-09T08:29:51;18.98;34.24
72202;SHT30;60105;54.956;73.412;2022-09-09T08:32:17;19.02;35.22
72202;SHT30;60105;54.956;73.412;2022-09-09T08:34:46;19.03;33.56
72202;SHT30;60105;54.956;73.412;2022-09-09T08:37:23;19.14;34.94
72202;SHT30;60105;54.956;73.412;2022-09-09T08:39:52;19.16;34.20
72202;SHT30;60105;54.956;73.412;2022-09-09T08:42:32;19.38;34.10
72202;SHT30;60105;54.956;73.412;2022-09-09T08:45:18;19.54;33.57
72202;SHT30;60105;54.956;73.412;2022-09-09T08:48:44;19.57;32.98
72202;SHT30;60105;54.956;73.412;2022-09-09T08:51:13;19.51;33.92
72202;SHT30;60105;54.956;73.412;2022-09-09T08:53:50;19.49;34.67
72202;SHT30;60105;54.956;73.412;2022-09-09T08:56:24;19.50;32.78
72202;SHT30;60105;54.956;73.412;2022-09-09T08:58:55;19.54;32.76
72202;SHT30;60105;54.956;73.412;2022-09-09T09:04:33;19.49;32.86
72202;SHT30;60105;54.956;73.412;2022-09-09T09:12:53;19.41;32.29
72202;SHT30;60105;54.956;73.412;2022-09-09T09:15:24;19.46;32.87
72202;SHT30;60105;54.956;73.412;2022-09-09T09:17:53;19.40;32.33
72202;SHT30;60105;54.956;73.412;2022-09-09T09:23:22;19.54;32.07
72202;SHT30;60105;54.956;73.412;2022-09-09T09:25:51;19.58;31.74
72202;SHT30;60105;54.956;73.412;2022-09-09T09:28:24;19.63;31.82
72202;SHT30;60105;54.956;73.412;2022-09-09T09:31:03;19.67;31.72
72202;SHT30;60105;54.956;73.412;2022-09-09T09:33:51;19.71;31.20
72202;SHT30;60105;54.956;73.412;2022-09-09T09:36:40;19.67;30.74
72202;SHT30;60105;54.956;73.412;2022-09-09T09:39:31;19.65;30.85
72202;SHT30;60105;54.956;73.412;2022-09-09T09:42:13;19.65;31.75
72202;SHT30;60105;54.956;73.412;2022-09-09T09:44:42;19.70;30.62
72202;SHT30;60105;54.956;73.412;2022-09-09T09:47:16;19.70;31.16
72202;SHT30;60105;54.956;73.412;2022-09-09T09:49:56;19.60;31.59
72202;SHT30;60105;54.956;73.412;2022-09-09T09:52:27;19.51;32.11
72202;SHT30;60105;54.956;73.412;2022-09-09T09:54:56;19.37;30.72
72202;SHT30;60105;54.956;73.412;2022-09-09T09:57:33;19.37;31.21
72202;SHT30;60105;54.956;73.412;2022-09-09T10:00:15;19.33;31.15
72202;SHT30;60105;54.956;73.412;2022-09-09T10:02:50;19.34;32.17
72202;SHT30;60105;54.956;73.412;2022-09-09T10:05:27;19.31;32.45
72202;SHT30;60105;54.956;73.412;2022-09-09T10:08:19;19.28;31.51
72202;SHT30;60105;54.956;73.412;2022-09-09T10:19:00;19.17;32.97
72202;SHT30;60105;54.956;73.412;2022-09-09T10:24:44;19.12;31.62
72202;SHT30;60105;54.956;73.412;2022-09-09T10:33:02;19.10;31.45
72202;SHT30;60105;54.956;73.412;2022-09-09T10:38:43;18.99;32.59
72202;SHT30;60105;54.956;73.412;2022-09-09T10:55:20;19.41;32.83
72202;SHT30;60105;54.956;73.412;2022-09-09T10:57:53;19.35;32.91
72202;SHT30;60105;54.956;73.412;2022-09-09T11:00:40;19.30;33.83
72202;SHT30;60105;54.956;73.412;2022-09-09T11:03:17;19.27;33.23
72202;SHT30;60105;54.956;73.412;2022-09-09T11:05:57;19.33;33.84
72202;SHT30;60105;54.956;73.412;2022-09-09T11:08:26;19.38;33.05
72202;SHT30;60105;54.956;73.412;2022-09-09T11:11:04;19.44;32.88
72202;SHT30;60105;54.956;73.412;2022-09-09T11:16:57;19.31;33.72
72202;SHT30;60105;54.956;73.412;2022-09-09T11:19:43;19.26;34.87
72202;SHT30;60105;54.956;73.412;2022-09-09T11:22:16;19.12;34.60
72202;SHT30;60105;54.956;73.412;2022-09-09T11:24:49;19.23;34.19
72202;SHT30;60105;54.956;73.412;2022-09-09T11:27:35;19.20;33.65
72202;SHT30;60105;54.956;73.412;2022-09-09T11:30:15;19.27;33.73
72202;SHT30;60105;54.956;73.412;2022-09-09T11:38:51;19.51;33.17
72202;SHT30;60105;54.956;73.412;2022-09-09T11:41:20;19.50;32.95
72202;SHT30;60105;54.956;73.412;2022-09-09T11:43:51;19.46;33.09
72202;SHT30;60105;54.956;73.412;2022-09-09T11:46:21;19.38;33.39
72202;SHT30;60105;54.956;73.412;2022-09-09T11:49:00;19.27;33.53
72202;SHT30;60105;54.956;73.412;2022-09-09T11:51:28;19.20;32.97
72202;SHT30;60105;54.956;73.412;2022-09-09T11:54:01;19.12;33.50
72202;SHT30;60105;54.956;73.412;2022-09-09T11:56:43;18.98;32.95
72202;SHT30;60105;54.956;73.412;2022-09-09T11:59:30;18.89;34.49
72202;SHT30;60105;54.956;73.412;2022-09-09T12:02:13;18.79;33.25
72202;SHT30;60105;54.956;73.412;2022-09-09T12:07:49;18.64;32.85
72202;SHT30;60105;54.956;73.412;2022-09-09T12:10:26;18.56;33.86
72202;SHT30;60105;54.956;73.412;2022-09-09T12:12:53;18.58;33.54
72202;SHT30;60105;54.956;73.412;2022-09-09T12:15:26;18.48;33.31
72202;SHT30;60105;54.956;73.412;2022-09-09T12:17:58;18.45;33.17
72202;SHT30;60105;54.956;73.412;2022-09-09T12:20:38;18.41;33.57
72202;SHT30;60105;54.956;73.412;2022-09-09T12:23:27;18.37;33.29
72202;SHT30;60105;54.956;73.412;2022-09-09T12:26:19;18.24;32.90
72202;SHT30;60105;54.956;73.412;2022-09-09T12:32:11;18.10;32.88
72202;SHT30;60105;54.956;73.412;2022-09-09T12:34:51;18.03;33.04
72202;SHT30;60105;54.956;73.412;2022-09-09T12:40:33;17.90;33.22
72202;SHT30;60105;54.956;73.412;2022-09-09T12:43:21;17.91;33.59
72202;SHT30;60105;54.956;73.412;2022-09-09T12:45:49;17.89;33.95
72202;SHT30;60105;54.956;73.412;2022-09-09T12:48:27;17.87;34.69
72202;SHT30;60105;54.956;73.412;2022-09-09T12:50:54;17.82;35.37
72202;SHT30;60105;54.956;73.412;2022-09-09T12:53:25;17.77;34.43
72202;SHT30;60105;54.956;73.412;2022-09-09T12:56:01;17.76;34.41
72202;SHT30;60105;54.956;73.412;2022-09-09T12:58:29;17.73;34.84
72202;SHT30;60105;54.956;73.412;2022-09-09T13:01:00;17.73;35.43
72202;SHT30;60105;54.956;73.412;2022-09-09T13:03:32;17.69;35.06
72202;SHT30;60105;54.956;73.412;2022-09-09T13:06:13;17.61;35.50
72202;SHT30;60105;54.956;73.412;2022-09-09T13:08:40;17.58;34.95
72202;SHT30;60105;54.956;73.412;2022-09-09T13:11:10;17.50;35.92
72202;SHT30;60105;54.956;73.412;2022-09-09T13:13:40;17.43;36.18
72202;SHT30;60105;54.956;73.412;2022-09-09T13:16:41;17.36;35.93
72202;SHT30;60105;54.956;73.412;2022-09-09T13:19:14;17.32;36.05
72202;SHT30;60105;54.956;73.412;2022-09-09T13:21:41;17.24;36.84
72202;SHT30;60105;54.956;73.412;2022-09-09T13:24:33;17.12;37.33
72202;SHT30;60105;54.956;73.412;2022-09-09T13:27:01;17.04;37.49
72202;SHT30;60105;54.956;73.412;2022-09-09T13:29:28;16.98;37.50
72202;SHT30;60105;54.956;73.412;2022-09-09T13:32:04;16.88;38.64
72202;SHT30;60105;54.956;73.412;2022-09-09T13:34:34;16.81;38.08
72202;SHT30;60105;54.956;73.412;2022-09-09T13:37:03;16.74;38.47
72202;SHT30;60105;54.956;73.412;2022-09-09T13:39:37;16.69;38.18
72202;SHT30;60105;54.956;73.412;2022-09-09T13:42:24;16.61;39.37
72202;SHT30;60105;54.956;73.412;2022-09-09T13:45:01;16.52;39.58
72202;SHT30;60105;54.956;73.412;2022-09-09T13:47:36;16.48;39.32
72202;SHT30;60105;54.956;73.412;2022-09-09T13:50:22;16.39;39.30
72202;SHT30;60105;54.956;73.412;2022-09-09T13:52:51;16.32;40.02
72202;SHT30;60105;54.956;73.412;2022-09-09T13:55:20;16.29;40.69
72202;SHT30;60105;54.956;73.412;2022-09-09T14:00:32;16.18;40.98
72202;SHT30;60105;54.956;73.412;2022-09-09T14:03:08;16.12;41.49
72202;SHT30;60105;54.956;73.412;2022-09-09T14:05:40;16.08;41.36
72202;SHT30;60105;54.956;73.412;2022-09-09T14:08:07;15.97;42.51
72202;SHT30;60105;54.956;73.412;2022-09-09T14:10:41;15.91;43.13
72202;SHT30;60105;54.956;73.412;2022-09-09T14:13:08;15.85;43.09
72202;SHT30;60105;54.956;73.412;2022-09-09T14:15:44;15.78;42.82
72202;SHT30;60105;54.956;73.412;2022-09-09T14:18:13;15.71;42.89
72202;SHT30;60105;54.956;73.412;2022-09-09T14:20:39;15.70;42.64
72202;SHT30;60105;54.956;73.412;2022-09-09T14:23:12;15.60;42.64
72202;SHT30;60105;54.956;73.412;2022-09-09T14:25:44;15.53;43.64
72202;SHT30;60105;54.956;73.412;2022-09-09T14:28:11;15.44;43.38
72202;SHT30;60105;54.956;73.412;2022-09-09T14:30:42;15.37;43.93
72202;SHT30;60105;54.956;73.412;2022-09-09T14:33:11;15.30;43.65
72202;SHT30;60105;54.956;73.412;2022-09-09T14:35:47;15.29;44.02
72202;SHT30;60105;54.956;73.412;2022-09-09T14:38:25;15.22;44.50
72202;SHT30;60105;54.956;73.412;2022-09-09T14:40:56;15.14;44.58
72202;SHT30;60105;54.956;73.412;2022-09-09T14:43:23;15.12;44.31
72202;SHT30;60105;54.956;73.412;2022-09-09T14:45:49;15.02;45.07
72202;SHT30;60105;54.956;73.412;2022-09-09T14:48:17;15.00;44.72
72202;SHT30;60105;54.956;73.412;2022-09-09T14:50:43;14.98;45.10
72202;SHT30;60105;54.956;73.412;2022-09-09T14:53:16;14.91;45.58
72202;SHT30;60105;54.956;73.412;2022-09-09T14:55:42;14.81;45.32
72202;SHT30;60105;54.956;73.412;2022-09-09T14:58:08;14.78;45.88
72202;SHT30;60105;54.956;73.412;2022-09-09T15:00:35;14.69;46.87
72202;SHT30;60105;54.956;73.412;2022-09-09T15:03:02;14.60;49.31
72202;SHT30;60105;54.956;73.412;2022-09-09T15:05:28;14.46;50.57
72202;SHT30;60105;54.956;73.412;2022-09-09T15:07:55;14.38;51.05
72202;SHT30;60105;54.956;73.412;2022-09-09T15:10:22;14.34;48.46
72202;SHT30;60105;54.956;73.412;2022-09-09T15:12:48;14.31;50.58
72202;SHT30;60105;54.956;73.412;2022-09-09T15:15:24;14.25;50.46
72202;SHT30;60105;54.956;73.412;2022-09-09T15:17:52;14.21;49.39
72202;SHT30;60105;54.956;73.412;2022-09-09T15:20:23;14.09;51.10
72202;SHT30;60105;54.956;73.412;2022-09-09T15:22:49;14.02;48.86
72202;SHT30;60105;54.956;73.412;2022-09-09T15:25:26;14.00;53.44
72202;SHT30;60105;54.956;73.412;2022-09-09T15:27:56;13.90;52.37
72202;SHT30;60105;54.956;73.412;2022-09-09T15:30:32;13.85;53.02
72202;SHT30;60105;54.956;73.412;2022-09-09T15:32:59;13.79;52.33
72202;SHT30;60105;54.956;73.412;2022-09-09T15:35:25;13.76;54.10
72202;SHT30;60105;54.956;73.412;2022-09-09T15:37:56;13.70;52.89
72202;SHT30;60105;54.956;73.412;2022-09-09T15:40:23;13.75;53.74
72202;SHT30;60105;54.956;73.412;2022-09-09T15:42:54;13.70;52.98
72202;SHT30;60105;54.956;73.412;2022-09-09T15:45:20;13.75;53.59
72202;SHT30;60105;54.956;73.412;2022-09-09T15:47:47;13.66;53.24
72202;SHT30;60105;54.956;73.412;2022-09-09T15:50:14;13.61;52.34
72202;SHT30;60105;54.956;73.412;2022-09-09T15:52:40;13.62;51.77
72202;SHT30;60105;54.956;73.412;2022-09-09T15:55:07;13.66;51.43
72202;SHT30;60105;54.956;73.412;2022-09-09T15:57:34;13.62;52.48
72202;SHT30;60105;54.956;73.412;2022-09-09T16:00:06;13.52;53.30
72202;SHT30;60105;54.956;73.412;2022-09-09T16:02:33;13.51;54.34
72202;SHT30;60105;54.956;73.412;2022-09-09T16:04:59;13.42;56.08
72202;SHT30;60105;54.956;73.412;2022-09-09T16:07:27;13.32;54.69
72202;SHT30;60105;54.956;73.412;2022-09-09T16:09:53;13.28;55.25
72202;SHT30;60105;54.956;73.412;2022-09-09T16:12:20;13.28;55.85
72202;SHT30;60105;54.956;73.412;2022-09-09T16:14:47;13.18;57.26
72202;SHT30;60105;54.956;73.412;2022-09-09T16:17:13;13.10;57.30
72202;SHT30;60105;54.956;73.412;2022-09-09T16:19:41;13.08;57.79
72202;SHT30;60105;54.956;73.412;2022-09-09T16:22:07;12.97;57.23
72202;SHT30;60105;54.956;73.412;2022-09-09T16:24:38;12.88;58.03
72202;SHT30;60105;54.956;73.412;2022-09-09T16:27:05;12.84;59.26
72202;SHT30;60105;54.956;73.412;2022-09-09T16:29:32;12.79;59.84
72202;SHT30;60105;54.956;73.412;2022-09-09T16:31:59;12.69;59.41
72202;SHT30;60105;54.956;73.412;2022-09-09T16:34:25;12.63;61.67
72202;SHT30;60105;54.956;73.412;2022-09-09T16:37:02;12.59;60.43
72202;SHT30;60105;54.956;73.412;2022-09-09T16:39:28;12.56;62.29
72202;SHT30;60105;54.956;73.412;2022-09-09T16:41:59;12.46;61.87
72202;SHT30;60105;54.956;73.412;2022-09-09T16:44:35;12.39;61.61
72202;SHT30;60105;54.956;73.412;2022-09-09T16:47:02;12.39;62.17
72202;SHT30;60105;54.956;73.412;2022-09-09T16:49:29;12.36;61.47
72202;SHT30;60105;54.956;73.412;2022-09-09T16:51:58;12.26;61.56
72202;SHT30;60105;54.956;73.412;2022-09-09T16:54:35;12.28;62.35
72202;SHT30;60105;54.956;73.412;2022-09-09T16:57:01;12.24;62.56
72202;SHT30;60105;54.956;73.412;2022-09-09T16:59:33;12.18;61.89
72202;SHT30;60105;54.956;73.412;2022-09-09T17:01:59;12.21;63.66
72202;SHT30;60105;54.956;73.412;2022-09-09T17:04:27;12.22;62.84
72202;SHT30;60105;54.956;73.412;2022-09-09T17:06:54;12.14;63.45
72202;SHT30;60105;54.956;73.412;2022-09-09T17:09:26;12.15;62.13
72202;SHT30;60105;54.956;73.412;2022-09-09T17:11:58;12.18;61.87
72202;SHT30;60105;54.956;73.412;2022-09-09T17:14:24;12.15;61.71
72202;SHT30;60105;54.956;73.412;2022-09-09T17:16:56;12.05;62.19
72202;SHT30;60105;54.956;73.412;2022-09-09T17:19:23;11.95;63.79
72202;SHT30;60105;54.956;73.412;2022-09-09T17:21:49;11.94;64.58
72202;SHT30;60105;54.956;73.412;2022-09-09T17:24:20;11.90;64.53
72202;SHT30;60105;54.956;73.412;2022-09-09T17:26:57;11.85;65.42
72202;SHT30;60105;54.956;73.412;2022-09-09T17:29:23;11.77;65.61